うおー
10時までに会社着けるかな

矢場とん美味しいけど半年に1回位でいい

定期入れは出てこなさそう

年の瀬についてねぇ…

定期入れ落としたみたい
カードとか止めてまわるのに奔走中

最近朝からMETARチェックするのが習慣になってる

今日も寒いな

RJOO 092100Z 30003KT CAVOK 03/02 Q1023 RMK A3023

通勤列車内だけど、今目の前にスタンディングで15インチのMacBook広げてる強者女子がいる

セントレア8℃

RJGG 082130Z 35011KT 9999 FEW025 BKN035 08/02 Q1025 NOSIG

長崎寒いねーとか言ってたけど
伊丹2℃だった

RJOO 082100Z 31004KT 9999 FEW030 02/01 Q1025 RMK 1CU030 A3029

長崎5℃
結構寒いね

RJFU 082110Z 13005KT 9999 FEW050 05/04 Q1025 RMK 1SC050 A3028

ちなみに石垣島は19℃

ROIG 082100Z 03011KT 9999 FEW035 SCT060 19/13 Q1020

新千歳 -16℃

RJCC 082130Z VRB02KT 9999 FEW030 M16/M16 Q1028 RMK 1CU030 A3036

ブリリクソしてくる

Show more
hikoukidon

個人運用インスタンスです。 Private instance.